カンポ・グランデ の空港の天気 - METARとTAF

カンポ・グランデ国際空港 ( SBCG / CGR ) - ブラジル マットグロッソ・ド・スル州カンポ・グランデ
飛行場実況気象(Metar)
観測時間05/26 19:00 AMT (05/26 23:00 UTC)
風向・風速東 3m/s
視程10km以上
天気現象
なし
気温25℃
湿度50%
気圧1019hPa
METARSBCG 262300Z 10005KT CAVOK 25/14 Q1019
過去の天気等 Google飛行場航空写真 Wunderground天気予報

過去48時間のMETAR

飛行場予報(TAF)
発表時間: 5/26 12:00 AMT (5/26 16:00 UTC)
予報対象時間: 26日14時 AMT ~ 27日14時 AMT
風向・風速北 5m/s
視程10km以上
少しの雲 雲底高度 1370m
26日15時 AMT ~ 26日17時 AMT に徐々に
視程10km以上
なし
26日18時 AMT ~ 26日20時 AMT に徐々に
風向・風速東北東 5m/s
27日10時 AMT ~ 27日12時 AMT に徐々に
風向・風速北北西 4m/s
TAF SBCG 261600Z 2618/2718 01010KT 9999 FEW045 TN20/2709Z TX30/2718Z
BECMG 2619/2621 CAVOK
BECMG 2622/2624 07009KT
BECMG 2714/2716 34007KT RMK PHH